createdAt,value
2018-02-01T00:00:14.308Z,945.59
2018-02-01T00:01:14.301Z,945.66
2018-02-01T00:02:14.294Z,945.57
2018-02-01T00:03:14.291Z,945.65
2018-02-01T00:04:14.281Z,945.61
2018-02-01T00:05:14.311Z,945.59
2018-02-01T00:06:14.274Z,945.53
2018-02-01T00:07:14.265Z,945.57
2018-02-01T00:08:14.287Z,945.51
2018-02-01T00:09:14.255Z,945.51
2018-02-01T00:10:14.252Z,945.44
2018-02-01T00:11:14.269Z,945.43
2018-02-01T00:12:14.235Z,945.41
2018-02-01T00:13:14.270Z,945.46
2018-02-01T00:14:14.232Z,945.47
2018-02-01T00:15:14.221Z,945.46
2018-02-01T00:16:14.211Z,945.46
2018-02-01T00:17:14.213Z,945.50
2018-02-01T00:18:14.218Z,945.48
2018-02-01T00:19:14.203Z,945.50
2018-02-01T00:20:14.212Z,945.56
2018-02-01T00:21:14.263Z,945.58
2018-02-01T00:22:14.183Z,945.51
2018-02-01T00:23:14.179Z,945.50
2018-02-01T00:24:14.196Z,945.48
2018-02-01T00:25:14.193Z,945.41
2018-02-01T00:26:14.155Z,945.37
2018-02-01T00:27:14.172Z,945.36
2018-02-01T00:28:14.164Z,945.36
2018-02-01T00:29:14.146Z,945.39
2018-02-01T00:30:14.156Z,945.39
2018-02-01T00:31:14.166Z,945.36
2018-02-01T00:32:14.123Z,945.30
2018-02-01T00:33:14.112Z,945.33
2018-02-01T00:34:14.121Z,945.34
2018-02-01T00:35:14.114Z,945.32
2018-02-01T00:36:14.100Z,945.36
2018-02-01T00:37:14.089Z,945.40
2018-02-01T00:38:14.160Z,945.38
2018-02-01T00:39:14.093Z,945.39
2018-02-01T00:40:14.072Z,945.46
2018-02-01T00:41:14.091Z,945.47
2018-02-01T00:42:14.077Z,945.45
2018-02-01T00:43:14.081Z,945.43
2018-02-01T00:44:14.090Z,945.38
2018-02-01T00:45:14.041Z,945.44
2018-02-01T00:46:14.039Z,945.36
2018-02-01T00:47:14.054Z,945.38
2018-02-01T00:48:14.054Z,945.32
2018-02-01T00:49:14.027Z,945.36
2018-02-01T00:50:14.018Z,945.34
2018-02-01T00:51:14.029Z,945.37
2018-02-01T00:52:14.010Z,945.38
2018-02-01T00:53:13.997Z,945.41
2018-02-01T00:54:13.991Z,945.43
2018-02-01T00:55:13.985Z,945.45
2018-02-01T00:56:13.981Z,945.47
2018-02-01T00:57:13.989Z,945.41
2018-02-01T00:58:15.599Z,945.46
2018-02-01T00:59:14.040Z,945.49
2018-02-01T01:00:14.090Z,945.52
2018-02-01T01:01:14.033Z,945.56
2018-02-01T01:02:13.953Z,945.57
2018-02-01T01:03:13.969Z,945.61
2018-02-01T01:04:13.936Z,945.58
2018-02-01T01:05:13.942Z,945.59
2018-02-01T01:06:13.965Z,945.55
2018-02-01T01:07:13.925Z,945.56
2018-02-01T01:08:13.913Z,945.48
2018-02-01T01:09:13.914Z,945.46
2018-02-01T01:10:13.907Z,945.38
2018-02-01T01:11:13.889Z,945.41
2018-02-01T01:12:13.921Z,945.39
2018-02-01T01:13:13.913Z,945.40
2018-02-01T01:14:13.873Z,945.48
2018-02-01T01:15:13.880Z,945.47
2018-02-01T01:16:13.886Z,945.51
2018-02-01T01:17:13.900Z,945.56
2018-02-01T01:18:13.854Z,945.58
2018-02-01T01:19:13.842Z,945.55
2018-02-01T01:20:13.898Z,945.59
2018-02-01T01:21:13.866Z,945.59
2018-02-01T01:22:13.827Z,945.60
2018-02-01T01:23:13.850Z,945.61
2018-02-01T01:24:13.818Z,945.61
2018-02-01T01:25:13.811Z,945.63
2018-02-01T01:26:13.829Z,945.68
2018-02-01T01:27:13.798Z,945.63
2018-02-01T01:28:13.792Z,945.64
2018-02-01T01:29:13.786Z,945.61
2018-02-01T01:30:13.787Z,945.61
2018-02-01T01:31:13.776Z,945.61
2018-02-01T01:32:13.795Z,945.68
2018-02-01T01:33:13.756Z,945.69
2018-02-01T01:34:13.801Z,945.71
2018-02-01T01:35:13.751Z,945.73
2018-02-01T01:36:13.751Z,945.76
2018-02-01T01:37:13.736Z,945.80
2018-02-01T01:38:13.731Z,945.78
2018-02-01T01:39:13.723Z,945.81
2018-02-01T01:40:13.744Z,945.82
2018-02-01T01:41:13.713Z,945.81
2018-02-01T01:42:13.708Z,945.86
2018-02-01T01:43:13.732Z,945.82
2018-02-01T01:44:13.732Z,945.84
2018-02-01T01:45:13.709Z,945.80
2018-02-01T01:46:13.678Z,945.78
2018-02-01T01:47:13.692Z,945.80
2018-02-01T01:48:13.698Z,945.79
2018-02-01T01:49:13.662Z,945.81
2018-02-01T01:50:13.664Z,945.85
2018-02-01T01:51:13.649Z,945.81
2018-02-01T01:52:13.661Z,945.81
2018-02-01T01:53:13.672Z,945.86
2018-02-01T01:54:13.644Z,945.75
2018-02-01T01:55:13.641Z,945.85
2018-02-01T01:56:13.679Z,945.72
2018-02-01T01:57:13.684Z,945.82
2018-02-01T01:58:13.636Z,945.83
2018-02-01T01:59:13.653Z,945.80
2018-02-01T02:00:13.641Z,945.82
2018-02-01T02:01:13.660Z,945.79
2018-02-01T02:02:13.632Z,945.81
2018-02-01T02:03:13.630Z,945.85
2018-02-01T02:04:13.635Z,945.80
2018-02-01T02:05:13.609Z,945.79
2018-02-01T02:06:13.559Z,945.80
2018-02-01T02:07:13.557Z,945.74
2018-02-01T02:08:13.550Z,945.77
2018-02-01T02:09:13.545Z,945.71
2018-02-01T02:10:13.542Z,945.70
2018-02-01T02:11:13.564Z,945.71
2018-02-01T02:12:13.529Z,945.71
2018-02-01T02:13:13.530Z,945.74
2018-02-01T02:14:13.515Z,945.77
2018-02-01T02:15:13.515Z,945.77
2018-02-01T02:16:13.504Z,945.80
2018-02-01T02:17:13.499Z,945.93
2018-02-01T02:18:13.487Z,945.87
2018-02-01T02:19:13.486Z,945.86
2018-02-01T02:20:13.492Z,945.94
2018-02-01T02:21:13.495Z,945.94
2018-02-01T02:22:13.468Z,945.99
2018-02-01T02:23:13.458Z,946.06
2018-02-01T02:24:13.482Z,946.01
2018-02-01T02:25:13.450Z,946.00
2018-02-01T02:26:13.441Z,946.06
2018-02-01T02:27:13.463Z,945.98
2018-02-01T02:28:13.451Z,945.99
2018-02-01T02:29:13.426Z,946.00
2018-02-01T02:30:13.416Z,945.96
2018-02-01T02:31:13.429Z,945.99
2018-02-01T02:32:13.404Z,945.98
2018-02-01T02:33:13.393Z,945.91
2018-02-01T02:34:13.388Z,945.91
2018-02-01T02:35:13.386Z,945.94
2018-02-01T02:36:13.374Z,945.86
2018-02-01T02:37:13.372Z,945.80
2018-02-01T02:38:13.365Z,945.88
2018-02-01T02:39:13.359Z,945.86
2018-02-01T02:40:13.350Z,945.82
2018-02-01T02:41:13.348Z,945.71
2018-02-01T02:42:13.339Z,945.79
2018-02-01T02:43:13.334Z,945.77
2018-02-01T02:44:13.324Z,945.74
2018-02-01T02:45:13.315Z,945.75
2018-02-01T02:46:13.331Z,945.77
2018-02-01T02:47:13.347Z,945.74
2018-02-01T02:48:13.300Z,945.74
2018-02-01T02:49:13.308Z,945.75
2018-02-01T02:50:13.286Z,945.73
2018-02-01T02:51:13.281Z,945.73
2018-02-01T02:52:13.269Z,945.71
2018-02-01T02:53:13.265Z,945.66
2018-02-01T02:54:13.266Z,945.69
2018-02-01T02:55:13.255Z,945.74
2018-02-01T02:56:13.259Z,945.69
2018-02-01T02:57:13.298Z,945.64
2018-02-01T02:58:13.240Z,945.68
2018-02-01T02:59:13.251Z,945.69
2018-02-01T03:00:13.269Z,945.72
2018-02-01T03:01:13.274Z,945.69
2018-02-01T03:02:13.203Z,945.67
2018-02-01T03:03:13.253Z,945.64
2018-02-01T03:04:13.247Z,945.71
2018-02-01T03:05:13.189Z,945.72
2018-02-01T03:06:13.211Z,945.74
2018-02-01T03:07:13.181Z,945.77
2018-02-01T03:08:13.214Z,945.75
2018-02-01T03:09:13.162Z,945.81
2018-02-01T03:10:13.150Z,945.87
2018-02-01T03:11:13.145Z,945.85
2018-02-01T03:12:13.159Z,945.88
2018-02-01T03:13:13.135Z,945.90
2018-02-01T03:14:13.124Z,945.87
2018-02-01T03:15:13.147Z,945.88
2018-02-01T03:16:13.110Z,945.88
2018-02-01T03:17:13.103Z,945.90
2018-02-01T03:18:13.099Z,945.96
2018-02-01T03:19:13.089Z,945.95
2018-02-01T03:20:13.082Z,945.99
2018-02-01T03:21:13.100Z,945.98
2018-02-01T03:22:13.074Z,946.08
2018-02-01T03:23:13.094Z,946.06
2018-02-01T03:24:13.053Z,946.10
2018-02-01T03:25:13.063Z,946.05
2018-02-01T03:26:13.054Z,946.04
2018-02-01T03:27:13.080Z,946.01
2018-02-01T03:28:13.103Z,946.05
2018-02-01T03:29:13.064Z,946.10
2018-02-01T03:30:13.016Z,945.97
2018-02-01T03:31:13.012Z,946.01
2018-02-01T03:32:12.999Z,945.96
2018-02-01T03:33:13.055Z,945.94
2018-02-01T03:34:13.007Z,945.94
2018-02-01T03:35:12.980Z,945.99
2018-02-01T03:36:12.975Z,945.98
2018-02-01T03:37:12.971Z,945.93
2018-02-01T03:38:12.955Z,945.90
2018-02-01T03:39:12.957Z,945.92
2018-02-01T03:40:12.944Z,945.92
2018-02-01T03:41:12.936Z,945.88
2018-02-01T03:42:12.948Z,945.88
2018-02-01T03:43:12.919Z,945.84
2018-02-01T03:44:12.971Z,945.89
2018-02-01T03:45:12.947Z,945.97
2018-02-01T03:46:12.953Z,945.91
2018-02-01T03:47:12.897Z,945.95
2018-02-01T03:48:12.914Z,945.98
2018-02-01T03:49:12.931Z,946.00
2018-02-01T03:50:12.933Z,946.00
2018-02-01T03:51:12.897Z,946.06
2018-02-01T03:52:12.853Z,946.05
2018-02-01T03:53:12.858Z,945.97
2018-02-01T03:54:12.844Z,946.04
2018-02-01T03:55:12.843Z,945.97
2018-02-01T03:56:12.932Z,945.98
2018-02-01T03:57:12.846Z,945.95
2018-02-01T03:58:13.573Z,945.91
2018-02-01T03:59:12.836Z,945.87
2018-02-01T04:00:12.844Z,945.87
2018-02-01T04:01:12.799Z,945.88
2018-02-01T04:02:12.810Z,945.82
2018-02-01T04:03:12.786Z,945.88
2018-02-01T04:04:12.779Z,945.95
2018-02-01T04:05:12.764Z,945.91
2018-02-01T04:06:12.782Z,945.90
2018-02-01T04:07:12.749Z,945.88
2018-02-01T04:08:12.767Z,945.87
2018-02-01T04:09:12.820Z,945.90
2018-02-01T04:10:12.762Z,945.92
2018-02-01T04:11:12.888Z,945.94
2018-02-01T04:12:12.823Z,945.94
2018-02-01T04:13:12.753Z,945.89
2018-02-01T04:14:12.759Z,945.87
2018-02-01T04:15:12.734Z,945.88
2018-02-01T04:16:12.735Z,945.88
2018-02-01T04:17:12.702Z,945.88
2018-02-01T04:18:12.844Z,945.84
2018-02-01T04:19:12.702Z,945.88
2018-02-01T04:20:12.658Z,945.85
2018-02-01T04:21:12.670Z,945.90
2018-02-01T04:22:12.649Z,945.93
2018-02-01T04:23:12.672Z,945.99
2018-02-01T04:24:12.630Z,945.96
2018-02-01T04:25:12.627Z,945.96
2018-02-01T04:26:12.690Z,945.96
2018-02-01T04:27:12.633Z,946.01
2018-02-01T04:28:12.601Z,945.96
2018-02-01T04:29:12.598Z,946.04
2018-02-01T04:30:12.627Z,945.98
2018-02-01T04:31:12.589Z,945.98
2018-02-01T04:32:12.616Z,945.97
2018-02-01T04:33:12.576Z,946.09
2018-02-01T04:34:12.568Z,946.06
2018-02-01T04:35:12.558Z,946.08
2018-02-01T04:36:12.579Z,946.11
2018-02-01T04:37:12.553Z,946.15
2018-02-01T04:38:12.592Z,946.17
2018-02-01T04:39:12.547Z,946.11
2018-02-01T04:40:12.543Z,946.09
2018-02-01T04:41:12.511Z,946.12
2018-02-01T04:42:12.508Z,946.18
2018-02-01T04:43:12.641Z,946.18
2018-02-01T04:44:12.519Z,946.22
2018-02-01T04:45:12.520Z,946.26
2018-02-01T04:46:12.503Z,946.37
2018-02-01T04:47:12.467Z,946.43
2018-02-01T04:48:12.453Z,946.43
2018-02-01T04:49:12.477Z,946.42
2018-02-01T04:50:12.440Z,946.47
2018-02-01T04:51:12.439Z,946.41
2018-02-01T04:52:12.476Z,946.42
2018-02-01T04:53:12.424Z,946.47
2018-02-01T04:54:12.410Z,946.36
2018-02-01T04:55:12.519Z,946.38
2018-02-01T04:56:12.399Z,946.37
2018-02-01T04:57:12.399Z,946.37
2018-02-01T04:58:12.403Z,946.35
2018-02-01T04:59:12.399Z,946.37
2018-02-01T05:00:12.384Z,946.39
2018-02-01T05:01:12.363Z,946.40
2018-02-01T05:02:12.354Z,946.44
2018-02-01T05:03:12.347Z,946.45
2018-02-01T05:04:12.337Z,946.44
2018-02-01T05:05:12.332Z,946.40
2018-02-01T05:06:12.333Z,946.39
2018-02-01T05:07:12.344Z,946.36
2018-02-01T05:08:12.316Z,946.37
2018-02-01T05:09:12.316Z,946.32
2018-02-01T05:10:12.296Z,946.36
2018-02-01T05:11:12.295Z,946.34
2018-02-01T05:12:12.314Z,946.36
2018-02-01T05:13:12.310Z,946.37
2018-02-01T05:14:12.266Z,946.32
2018-02-01T05:15:12.256Z,946.34
2018-02-01T05:16:12.277Z,946.36
2018-02-01T05:17:12.242Z,946.32
2018-02-01T05:18:12.243Z,946.35
2018-02-01T05:19:12.235Z,946.38
2018-02-01T05:20:12.232Z,946.30
2018-02-01T05:21:12.220Z,946.35
2018-02-01T05:22:12.207Z,946.37
2018-02-01T05:23:12.203Z,946.38
2018-02-01T05:24:12.223Z,946.40
2018-02-01T05:25:12.213Z,946.40
2018-02-01T05:26:12.209Z,946.42
2018-02-01T05:27:12.175Z,946.41
2018-02-01T05:28:12.192Z,946.44
2018-02-01T05:29:12.186Z,946.43
2018-02-01T05:30:12.200Z,946.47
2018-02-01T05:31:12.143Z,946.36
2018-02-01T05:32:12.139Z,946.39
2018-02-01T05:33:12.128Z,946.39
2018-02-01T05:34:12.123Z,946.37
2018-02-01T05:35:12.118Z,946.35
2018-02-01T05:36:12.104Z,946.35
2018-02-01T05:37:12.203Z,946.24
2018-02-01T05:38:12.089Z,946.26
2018-02-01T05:39:12.093Z,946.23
2018-02-01T05:40:12.078Z,946.24
2018-02-01T05:41:12.075Z,946.23
2018-02-01T05:42:12.060Z,946.17
2018-02-01T05:43:12.054Z,946.22
2018-02-01T05:44:12.082Z,946.19
2018-02-01T05:45:12.042Z,946.17
2018-02-01T05:46:12.029Z,946.16
2018-02-01T05:47:12.024Z,946.16
2018-02-01T05:48:12.014Z,946.20
2018-02-01T05:49:12.009Z,946.25
2018-02-01T05:50:12.012Z,946.21
2018-02-01T05:51:12.003Z,946.16
2018-02-01T05:52:11.988Z,946.22
2018-02-01T05:53:11.977Z,946.22
2018-02-01T05:54:11.968Z,946.22
2018-02-01T05:55:11.965Z,946.23
2018-02-01T05:56:11.966Z,946.19
2018-02-01T05:57:11.950Z,946.17
2018-02-01T05:58:11.964Z,946.16
2018-02-01T05:59:11.933Z,946.14
2018-02-01T06:00:11.924Z,946.26
2018-02-01T06:01:11.918Z,946.33
2018-02-01T06:02:11.914Z,946.35
2018-02-01T06:03:11.908Z,946.44
2018-02-01T06:04:11.893Z,946.44
2018-02-01T06:05:11.891Z,946.42
2018-02-01T06:06:11.902Z,946.42
2018-02-01T06:07:11.873Z,946.39
2018-02-01T06:08:11.880Z,946.43
2018-02-01T06:09:11.867Z,946.44
2018-02-01T06:10:11.853Z,946.45
2018-02-01T06:11:11.886Z,946.42
2018-02-01T06:12:11.837Z,946.44
2018-02-01T06:13:11.835Z,946.49
2018-02-01T06:14:11.822Z,946.52
2018-02-01T06:15:11.813Z,946.50
2018-02-01T06:16:11.824Z,946.49
2018-02-01T06:17:11.801Z,946.48
2018-02-01T06:18:11.796Z,946.46
2018-02-01T06:19:11.786Z,946.45
2018-02-01T06:20:11.777Z,946.42
2018-02-01T06:21:11.773Z,946.43
2018-02-01T06:22:11.762Z,946.39
2018-02-01T06:23:11.754Z,946.37
2018-02-01T06:24:11.772Z,946.37
2018-02-01T06:25:11.780Z,946.34
2018-02-01T06:26:11.736Z,946.40
2018-02-01T06:27:11.729Z,946.32
2018-02-01T06:28:11.724Z,946.29
2018-02-01T06:29:11.710Z,946.30
2018-02-01T06:30:11.709Z,946.31
2018-02-01T06:31:11.696Z,946.30
2018-02-01T06:32:11.688Z,946.29
2018-02-01T06:33:11.683Z,946.24
2018-02-01T06:34:11.675Z,946.25
2018-02-01T06:35:11.955Z,946.29
2018-02-01T06:36:11.661Z,946.26
2018-02-01T06:37:11.671Z,946.31
2018-02-01T06:38:11.680Z,946.28
2018-02-01T06:39:11.642Z,946.26
2018-02-01T06:40:11.635Z,946.23
2018-02-01T06:41:11.624Z,946.25
2018-02-01T06:42:11.616Z,946.26
2018-02-01T06:43:11.611Z,946.32
2018-02-01T06:44:11.602Z,946.28
2018-02-01T06:45:11.591Z,946.30
2018-02-01T06:46:11.587Z,946.23
2018-02-01T06:47:11.588Z,946.29
2018-02-01T06:48:11.574Z,946.32
2018-02-01T06:49:11.616Z,946.33
2018-02-01T06:50:11.559Z,946.29
2018-02-01T06:51:11.549Z,946.29
2018-02-01T06:52:11.569Z,946.29
2018-02-01T06:53:11.535Z,946.29
2018-02-01T06:54:11.532Z,946.29
2018-02-01T06:55:11.519Z,946.36
2018-02-01T06:56:11.521Z,946.25
2018-02-01T06:57:11.506Z,946.27
2018-02-01T06:58:11.552Z,946.27
2018-02-01T06:59:11.506Z,946.29
2018-02-01T07:00:11.483Z,946.32
2018-02-01T07:01:11.482Z,946.33
2018-02-01T07:02:11.500Z,946.35
2018-02-01T07:03:11.463Z,946.32
2018-02-01T07:04:11.465Z,946.30
2018-02-01T07:05:11.450Z,946.28
2018-02-01T07:06:11.443Z,946.29
2018-02-01T07:07:11.431Z,946.32
2018-02-01T07:08:11.423Z,946.32
2018-02-01T07:09:11.419Z,946.32
2018-02-01T07:10:11.410Z,946.35
2018-02-01T07:11:11.403Z,946.30
2018-02-01T07:12:11.398Z,946.30
2018-02-01T07:13:11.387Z,946.27
2018-02-01T07:14:11.379Z,946.26
2018-02-01T07:15:11.372Z,946.28
2018-02-01T07:16:11.369Z,946.33
2018-02-01T07:17:11.361Z,946.27
2018-02-01T07:18:11.353Z,946.30
2018-02-01T07:19:11.349Z,946.28
2018-02-01T07:20:11.340Z,946.33
2018-02-01T07:21:11.329Z,946.33
2018-02-01T07:22:11.322Z,946.39
2018-02-01T07:23:11.313Z,946.36
2018-02-01T07:24:11.331Z,946.39
2018-02-01T07:25:11.296Z,946.33
2018-02-01T07:26:11.288Z,946.38
2018-02-01T07:27:11.282Z,946.35
2018-02-01T07:28:11.282Z,946.37
2018-02-01T07:29:11.279Z,946.39
2018-02-01T07:30:11.299Z,946.36
2018-02-01T07:31:11.250Z,946.37
2018-02-01T07:32:11.264Z,946.42
2018-02-01T07:33:11.241Z,946.40
2018-02-01T07:34:11.231Z,946.46
2018-02-01T07:35:11.230Z,946.50
2018-02-01T07:36:11.244Z,946.55
2018-02-01T07:37:11.268Z,946.58
2018-02-01T07:38:11.200Z,946.48
2018-02-01T07:39:11.197Z,946.56
2018-02-01T07:40:11.222Z,946.57
2018-02-01T07:41:11.198Z,946.54
2018-02-01T07:42:11.172Z,946.51
2018-02-01T07:43:11.166Z,946.47
2018-02-01T07:44:11.162Z,946.39
2018-02-01T07:45:11.155Z,946.50
2018-02-01T07:46:11.166Z,946.51
2018-02-01T07:47:11.156Z,946.46
2018-02-01T07:48:11.136Z,946.46
2018-02-01T07:49:11.122Z,946.50
2018-02-01T07:50:11.115Z,946.49
2018-02-01T07:51:11.106Z,946.53
2018-02-01T07:52:11.098Z,946.57
2018-02-01T07:53:11.094Z,946.50
2018-02-01T07:54:11.083Z,946.57
2018-02-01T07:55:11.076Z,946.58
2018-02-01T07:56:11.078Z,946.60
2018-02-01T07:57:11.063Z,946.57
2018-02-01T07:58:11.057Z,946.58
2018-02-01T07:59:11.052Z,946.58
2018-02-01T08:00:11.041Z,946.55
2018-02-01T08:01:11.032Z,946.58
2018-02-01T08:02:11.026Z,946.56
2018-02-01T08:03:11.020Z,946.53
2018-02-01T08:04:11.015Z,946.54
2018-02-01T08:05:11.006Z,946.59
2018-02-01T08:06:11.009Z,946.58
2018-02-01T08:07:10.992Z,946.50
2018-02-01T08:08:10.985Z,946.47
2018-02-01T08:09:10.977Z,946.41
2018-02-01T08:10:10.970Z,946.42
2018-02-01T08:11:10.965Z,946.47
2018-02-01T08:12:10.956Z,946.48
2018-02-01T08:13:10.952Z,946.52
2018-02-01T08:14:11.626Z,946.55
2018-02-01T08:15:11.295Z,946.58
2018-02-01T08:16:10.941Z,946.63
2018-02-01T08:17:10.923Z,946.65
2018-02-01T08:18:10.915Z,946.62
2018-02-01T08:19:10.936Z,946.66
2018-02-01T08:20:11.352Z,946.67
2018-02-01T08:21:13.258Z,946.65
2018-02-01T08:22:11.981Z,946.58
2018-02-01T08:23:11.224Z,946.56
2018-02-01T08:24:11.248Z,946.52
2018-02-01T08:25:11.121Z,946.53
2018-02-01T08:26:10.989Z,946.52
2018-02-01T08:27:11.129Z,946.55
2018-02-01T08:28:11.001Z,946.52
2018-02-01T08:29:10.954Z,946.56
2018-02-01T08:30:10.908Z,946.55
2018-02-01T08:31:10.955Z,946.56
2018-02-01T08:32:10.853Z,946.54
2018-02-01T08:33:11.023Z,946.55
2018-02-01T08:34:10.912Z,946.66
2018-02-01T08:35:10.873Z,946.62
2018-02-01T08:36:10.912Z,946.77
2018-02-01T08:37:11.124Z,946.79
2018-02-01T08:38:10.892Z,946.77
2018-02-01T08:39:10.893Z,946.74
2018-02-01T08:40:10.851Z,946.76
2018-02-01T08:41:10.885Z,946.78
2018-02-01T08:42:11.817Z,946.79
2018-02-01T08:43:11.774Z,946.77
2018-02-01T08:44:10.953Z,946.79
2018-02-01T08:45:10.830Z,946.81
2018-02-01T08:46:12.625Z,946.74
2018-02-01T08:47:10.849Z,946.67
2018-02-01T08:48:10.907Z,946.71
2018-02-01T08:49:10.777Z,946.72
2018-02-01T08:50:10.924Z,946.75
2018-02-01T08:51:10.881Z,946.79
2018-02-01T08:52:10.976Z,946.77
2018-02-01T08:53:10.954Z,946.81
2018-02-01T08:54:11.064Z,946.86
2018-02-01T08:55:10.891Z,946.80
2018-02-01T08:56:10.897Z,946.86
2018-02-01T08:57:10.791Z,946.79
2018-02-01T08:58:10.969Z,946.88
2018-02-01T08:59:10.722Z,946.83
2018-02-01T09:00:10.735Z,946.78
2018-02-01T09:01:10.652Z,946.80
2018-02-01T09:02:10.681Z,946.89
2018-02-01T09:03:10.639Z,946.91
2018-02-01T09:04:11.840Z,947.00
2018-02-01T09:05:11.982Z,946.98
2018-02-01T09:06:10.772Z,946.98
2018-02-01T09:07:10.912Z,947.04
2018-02-01T09:08:10.623Z,947.03
2018-02-01T09:09:10.617Z,946.99
2018-02-01T09:10:11.120Z,947.04
2018-02-01T09:11:11.009Z,947.04
2018-02-01T09:12:12.796Z,947.06
2018-02-01T09:14:45.734Z,947.03
2018-02-01T09:15:55.203Z,947.10
2018-02-01T09:17:55.226Z,947.06
2018-02-01T09:18:33.691Z,947.11
2018-02-01T09:19:34.656Z,947.04
2018-02-01T09:20:33.631Z,946.99
2018-02-01T09:21:33.684Z,946.98
2018-02-01T09:22:34.260Z,947.02
2018-02-01T09:23:33.013Z,947.01
2018-02-01T09:24:33.555Z,947.05
2018-02-01T09:25:32.954Z,947.08
2018-02-01T09:26:35.733Z,947.16
2018-02-01T09:27:33.582Z,947.20
2018-02-01T09:28:32.803Z,947.13
2018-02-01T09:29:32.564Z,947.14
2018-02-01T09:30:32.560Z,947.19
2018-02-01T09:31:32.554Z,947.19
2018-02-01T09:32:32.549Z,947.22
2018-02-01T09:33:32.549Z,947.15
2018-02-01T09:34:32.538Z,947.17
2018-02-01T09:35:32.537Z,947.21
2018-02-01T09:36:32.527Z,947.25
2018-02-01T09:37:32.527Z,947.18
2018-02-01T09:38:32.575Z,947.16
2018-02-01T09:39:32.531Z,947.14
2018-02-01T09:40:32.576Z,947.16
2018-02-01T09:41:32.523Z,947.24
2018-02-01T09:42:32.553Z,947.30
2018-02-01T09:43:32.508Z,947.30
2018-02-01T09:44:32.560Z,947.28
2018-02-01T09:45:32.558Z,947.25
2018-02-01T09:46:32.485Z,947.24
2018-02-01T09:47:32.482Z,947.28
2018-02-01T09:48:32.473Z,947.28
2018-02-01T09:49:34.322Z,947.40
2018-02-01T09:50:32.570Z,947.34
2018-02-01T09:51:34.280Z,947.35
2018-02-01T09:52:32.805Z,947.32
2018-02-01T09:53:32.452Z,947.37
2018-02-01T09:54:32.479Z,947.39
2018-02-01T09:55:32.476Z,947.35
2018-02-01T09:56:32.501Z,947.40
2018-02-01T09:57:32.434Z,947.34
2018-02-01T09:58:32.432Z,947.30
2018-02-01T09:59:32.472Z,947.40
2018-02-01T10:00:32.431Z,947.41
2018-02-01T10:01:32.420Z,947.44
2018-02-01T10:02:32.473Z,947.40
2018-02-01T10:03:32.497Z,947.41
2018-02-01T10:04:32.523Z,947.50
2018-02-01T10:05:32.492Z,947.49
2018-02-01T10:06:32.412Z,947.66
2018-02-01T10:07:32.437Z,947.81
2018-02-01T10:08:32.393Z,947.92
2018-02-01T10:09:32.423Z,947.84
2018-02-01T10:10:32.387Z,947.75
2018-02-01T10:11:32.376Z,947.95
2018-02-01T10:12:32.373Z,947.99
2018-02-01T10:13:32.376Z,947.91
2018-02-01T10:14:32.371Z,948.03
2018-02-01T10:15:32.374Z,947.86
2018-02-01T10:16:33.447Z,947.87
2018-02-01T10:17:32.414Z,947.73
2018-02-01T10:18:32.400Z,947.81
2018-02-01T10:19:32.382Z,947.79
2018-02-01T10:20:32.387Z,947.78
2018-02-01T10:21:32.397Z,947.65
2018-02-01T10:22:32.423Z,947.78
2018-02-01T10:23:32.414Z,947.70
2018-02-01T10:24:32.472Z,947.69
2018-02-01T10:25:32.416Z,947.80
2018-02-01T10:26:32.395Z,947.85
2018-02-01T10:27:32.417Z,947.88
2018-02-01T10:28:32.420Z,947.94
2018-02-01T10:29:32.402Z,947.88
2018-02-01T10:30:32.411Z,947.94
2018-02-01T10:31:32.415Z,947.96
2018-02-01T10:32:32.412Z,947.95
2018-02-01T10:33:32.418Z,948.00
2018-02-01T10:34:32.423Z,947.83
2018-02-01T10:35:32.426Z,948.14
2018-02-01T10:36:32.452Z,948.10
2018-02-01T10:37:32.435Z,948.16
2018-02-01T10:38:32.443Z,948.21
2018-02-01T10:39:32.445Z,948.08
2018-02-01T10:40:32.451Z,948.02
2018-02-01T10:41:32.498Z,948.09
2018-02-01T10:42:32.461Z,948.14
2018-02-01T10:43:32.465Z,948.24
2018-02-01T10:44:32.475Z,948.06
2018-02-01T10:45:32.479Z,948.07
2018-02-01T10:46:32.488Z,947.95
2018-02-01T10:47:32.487Z,947.80
2018-02-01T10:48:32.497Z,947.82
2018-02-01T10:49:32.502Z,947.83
2018-02-01T10:50:32.510Z,947.82
2018-02-01T10:51:32.519Z,947.83
2018-02-01T10:52:32.524Z,947.68
2018-02-01T10:53:32.531Z,947.73
2018-02-01T10:54:32.538Z,947.71
2018-02-01T10:55:32.543Z,947.70
2018-02-01T10:56:32.553Z,947.75
2018-02-01T10:57:32.557Z,947.62
2018-02-01T10:58:32.566Z,947.67
2018-02-01T10:59:32.592Z,947.70
2018-02-01T11:00:32.578Z,947.58
2018-02-01T11:01:32.578Z,947.57
2018-02-01T11:02:32.583Z,947.64
2018-02-01T11:03:32.587Z,947.54
2018-02-01T11:04:32.594Z,947.63
2018-02-01T11:05:32.594Z,947.63
2018-02-01T11:06:32.604Z,947.65
2018-02-01T11:07:32.599Z,947.66
2018-02-01T11:08:32.602Z,947.70
2018-02-01T11:09:32.613Z,947.69
2018-02-01T11:10:32.608Z,947.69
2018-02-01T11:11:32.606Z,947.78
2018-02-01T11:12:32.606Z,947.66
2018-02-01T11:13:32.608Z,947.71
2018-02-01T11:14:32.613Z,947.64
2018-02-01T11:15:32.607Z,947.62
2018-02-01T11:16:32.610Z,947.62
2018-02-01T11:17:32.611Z,947.60
2018-02-01T11:18:32.613Z,947.54
2018-02-01T11:19:32.609Z,947.43
2018-02-01T11:20:32.611Z,947.46
2018-02-01T11:21:32.610Z,947.50
2018-02-01T11:22:32.618Z,947.48
2018-02-01T11:23:32.613Z,947.43
2018-02-01T11:24:32.610Z,947.38
2018-02-01T11:25:32.612Z,947.34
2018-02-01T11:26:32.611Z,947.36
2018-02-01T11:27:32.609Z,947.35
2018-02-01T11:28:32.608Z,947.29
2018-02-01T11:29:32.607Z,947.30
2018-02-01T11:30:32.606Z,947.27
2018-02-01T11:31:32.605Z,947.30
2018-02-01T11:32:32.603Z,947.23
2018-02-01T11:33:32.602Z,947.20
2018-02-01T11:34:32.600Z,947.19
2018-02-01T11:35:32.600Z,947.15
2018-02-01T11:36:32.600Z,947.14
2018-02-01T11:37:32.596Z,947.12
2018-02-01T11:38:32.597Z,947.12
2018-02-01T11:39:32.594Z,947.00
2018-02-01T11:40:32.595Z,947.08
2018-02-01T11:41:32.591Z,947.11
2018-02-01T11:42:32.590Z,947.08
2018-02-01T11:43:32.585Z,947.06
2018-02-01T11:44:32.584Z,947.07
2018-02-01T11:45:32.582Z,947.03
2018-02-01T11:46:32.582Z,947.06
2018-02-01T11:47:32.578Z,947.10
2018-02-01T11:48:32.581Z,947.14
2018-02-01T11:49:32.574Z,947.20
2018-02-01T11:50:32.573Z,947.15
2018-02-01T11:51:32.572Z,947.21
2018-02-01T11:52:32.565Z,947.15
2018-02-01T11:53:32.563Z,947.12
2018-02-01T11:54:32.567Z,947.11
2018-02-01T11:55:32.558Z,947.10
2018-02-01T11:56:32.557Z,947.04
2018-02-01T11:57:32.557Z,947.08
2018-02-01T11:58:32.552Z,947.01
2018-02-01T11:59:32.549Z,947.11
2018-02-01T12:00:32.548Z,947.16
2018-02-01T12:01:32.546Z,947.18
2018-02-01T12:02:32.538Z,947.11
2018-02-01T12:03:32.535Z,947.19
2018-02-01T12:04:32.534Z,947.16
2018-02-01T12:05:32.529Z,947.17
2018-02-01T12:06:32.532Z,947.18
2018-02-01T12:07:32.525Z,947.11
2018-02-01T12:08:32.522Z,947.17
2018-02-01T12:09:32.522Z,947.14
2018-02-01T12:10:32.515Z,947.14
2018-02-01T12:11:32.511Z,947.10
2018-02-01T12:12:32.512Z,947.08
2018-02-01T12:13:32.504Z,947.13
2018-02-01T12:14:32.502Z,947.05
2018-02-01T12:15:32.499Z,947.04
2018-02-01T12:16:32.493Z,947.09
2018-02-01T12:17:32.493Z,947.09
2018-02-01T12:18:32.492Z,947.12
2018-02-01T12:19:32.481Z,947.12
2018-02-01T12:20:32.479Z,947.03
2018-02-01T12:21:32.474Z,947.04
2018-02-01T12:22:32.508Z,947.00
2018-02-01T12:23:32.466Z,947.04
2018-02-01T12:24:32.466Z,947.04
2018-02-01T12:25:32.461Z,947.08
2018-02-01T12:26:32.492Z,947.07
2018-02-01T12:27:32.454Z,947.11
2018-02-01T12:28:32.450Z,947.10
2018-02-01T12:29:32.444Z,947.10
2018-02-01T12:30:32.459Z,947.11